Madison, MN

6:23 AM CDT on October 14, 2019 (GMT -0500)
Madison-Lac Qui Parle County

Weather History for KDXX - August, 2019

Change the Weather History Date:

Thursday, August 22, 2019

  Actual Average (WUND) Record (WUND)
Temperature  
Mean Temperature 63 °F -  
Max Temperature 75 °F - - (-1)
Min Temperature 51 °F - - (-1)
Degree Days  
Heating Degree Days 2    
Growing Degree Days 13 (Base 50)    
Moisture  
Dew Point 55 °F    
Average Humidity 75    
Maximum Humidity 100    
Minimum Humidity 47    
Precipitation  
Precipitation 0.00 in - - ()
Sea Level Pressure  
Sea Level Pressure 30.09 in    
Wind  
Wind Speed 2 mph (ESE)    
Max Wind Speed 9 mph    
Max Gust Speed -    
Visibility 9 miles    
Events Fog    
Averages and records for this station are not official NWS values.
T = Trace of Precipitation, MM = Missing Value Source: NWS Daily Summary

Daily Weather History Graph

Daily Weather History Graph

Search for Another Location

Airport or City:

Astronomy

Aug. 22, 2019 Rise Set
Actual Time 6:34 AM CDT 8:19 PM CDT
Civil Twilight 6:03 AM CDT 8:50 PM CDT
Nautical Twilight 5:25 AM CDT 9:28 PM CDT
Astronomical Twilight 4:43 AM CDT 10:09 PM CDT
Moon 11:52 PM CDT (8/22) 1:28 PM CDT (8/22)
Length of Visible Light 14h 47m
Length of Day
13h 45m
Waning Gibbous, 59% of the Moon is Illuminated
Aug 22
Waning Gibbous
Aug 23
Last Quarter
Aug 30
New
Sep 5
First Quarter
Sep 13
Full

Hourly Weather History & Observations

Time (CDT) Temp. Dew Point Humidity Pressure Visibility Wind Dir Wind Speed Gust Speed Precip Events Conditions
12:15 AM 59.0 °F 57.2 °F 94% 30.09 in 10.0 mi Calm Calm - N/A   Clear
12:19 AM 57.2 °F 57.2 °F 100% 30.09 in 10.0 mi Calm Calm - N/A   Clear
12:37 AM 57.2 °F 55.4 °F 94% 30.09 in 10.0 mi Calm Calm - N/A   Clear
12:56 AM 57.2 °F 55.4 °F 94% 30.09 in 10.0 mi Calm Calm - N/A   Clear
1:15 AM 57.2 °F 55.4 °F 94% 30.09 in 10.0 mi Calm Calm - N/A   Clear
1:16 AM 57.2 °F 55.4 °F 94% 30.09 in 10.0 mi Calm Calm - N/A   Clear
1:35 AM 55.4 °F 53.6 °F 94% 30.09 in 10.0 mi Calm Calm - N/A   Clear
1:57 AM 55.4 °F 55.4 °F 100% 30.09 in 10.0 mi Calm Calm - N/A   Clear
2:15 AM 55.4 °F 53.6 °F 94% 30.08 in 10.0 mi North 3.5 mph - N/A   Clear
2:35 AM 55.4 °F 55.4 °F 100% 30.08 in 10.0 mi Calm Calm - N/A   Clear
2:36 AM 55.4 °F 55.4 °F 100% 30.08 in 10.0 mi Calm Calm - N/A   Clear
2:55 AM 55.4 °F 53.6 °F 94% 30.08 in 10.0 mi Calm Calm - N/A   Clear
2:56 AM 55.4 °F 53.6 °F 94% 30.08 in 10.0 mi Calm Calm - N/A   Clear
3:19 AM 55.4 °F 53.6 °F 94% 30.08 in 10.0 mi Calm Calm - N/A   Clear
3:36 AM 55.4 °F 53.6 °F 94% 30.08 in 10.0 mi Calm Calm - N/A   Clear
3:56 AM 55.4 °F 53.6 °F 94% 30.08 in 10.0 mi Calm Calm - N/A   Clear
4:15 AM 55.4 °F 53.6 °F 94% 30.08 in 10.0 mi Calm Calm - N/A   Clear
4:35 AM 53.6 °F 53.6 °F 100% 30.08 in 7.0 mi Calm Calm - N/A   Clear
4:39 AM 53.6 °F 53.6 °F 100% 30.08 in 5.0 mi Calm Calm - N/A   Clear
4:58 AM 53.6 °F 53.6 °F 100% 30.07 in 10.0 mi Calm Calm - N/A   Clear
5:15 AM 53.6 °F 51.8 °F 94% 30.08 in 10.0 mi Calm Calm - N/A   Clear
5:35 AM 53.6 °F 53.6 °F 100% 30.07 in 4.0 mi Calm Calm - N/A   Clear
5:36 AM 53.6 °F 53.6 °F 100% 30.07 in 4.0 mi Calm Calm - N/A   Clear
5:55 AM 53.6 °F 51.8 °F 94% 30.07 in 10.0 mi Calm Calm - N/A   Clear
6:19 AM 53.6 °F 53.6 °F 100% 30.08 in 1.2 mi Calm Calm - N/A   Mist
6:36 AM 51.8 °F 51.8 °F 100% 30.09 in 1.5 mi Calm Calm - N/A   Mist
6:55 AM 51.8 °F 51.8 °F 100% 30.09 in 0.5 mi Calm Calm - N/A Fog Fog
6:56 AM 51.8 °F 51.8 °F 100% 30.09 in 0.5 mi Calm Calm - N/A Fog Fog
7:15 AM 51.8 °F 51.8 °F 100% 30.10 in 1.8 mi Calm Calm - N/A   Mostly Cloudy
7:16 AM 51.8 °F 51.8 °F 100% 30.10 in 1.2 mi Calm Calm - N/A   Mostly Cloudy
7:35 AM 53.6 °F 53.6 °F 100% 30.09 in 10.0 mi Calm Calm - N/A   Clear
7:57 AM 57.2 °F 55.4 °F 94% 30.10 in 10.0 mi Calm Calm - N/A   Clear
8:15 AM 59.0 °F 57.2 °F 94% 30.09 in 10.0 mi Calm Calm - N/A   Clear
8:35 AM 60.8 °F 57.2 °F 88% 30.10 in 10.0 mi Calm Calm - N/A   Clear
8:36 AM 60.8 °F 59.0 °F 94% 30.10 in 10.0 mi Calm Calm - N/A   Clear
8:55 AM 62.6 °F 57.2 °F 82% 30.09 in 10.0 mi Calm Calm - N/A   Clear
8:56 AM 62.6 °F 57.2 °F 82% 30.09 in 10.0 mi Calm Calm - N/A   Clear
9:19 AM 64.4 °F 57.2 °F 77% 30.09 in 10.0 mi ESE 3.5 mph - N/A   Clear
9:36 AM 66.2 °F 57.2 °F 73% 30.09 in 10.0 mi SE 3.5 mph - N/A   Clear
9:56 AM 66.2 °F 57.2 °F 73% 30.10 in 10.0 mi SE 5.8 mph - N/A   Clear
10:15 AM 68.0 °F 57.2 °F 68% 30.10 in 10.0 mi SE 4.6 mph - N/A   Clear
10:35 AM 69.8 °F 57.2 °F 64% 30.11 in 10.0 mi SSE 3.5 mph - N/A   Clear
10:39 AM 69.8 °F 57.2 °F 64% 30.11 in 10.0 mi SE 4.6 mph - N/A   Clear
10:58 AM 69.8 °F 55.4 °F 60% 30.11 in 10.0 mi SSE 8.1 mph - N/A   Clear
11:15 AM 71.6 °F 55.4 °F 57% 30.11 in 10.0 mi ESE 6.9 mph - N/A   Clear
11:35 AM 71.6 °F 55.4 °F 57% 30.10 in 10.0 mi ESE 5.8 mph - N/A   Clear
11:36 AM 71.6 °F 55.4 °F 57% 30.10 in 10.0 mi ESE 6.9 mph - N/A   Clear
12:18 PM 73.4 °F 55.4 °F 53% 30.10 in 10.0 mi SE 6.9 mph - N/A   Clear
12:36 PM 73.4 °F 55.4 °F 53% 30.10 in 10.0 mi SE 8.1 mph - N/A   Clear
12:55 PM 73.4 °F 53.6 °F 50% 30.09 in 10.0 mi ESE 6.9 mph - N/A   Clear
12:56 PM 73.4 °F 55.4 °F 53% 30.09 in 10.0 mi ESE 5.8 mph - N/A   Clear
1:15 PM 73.4 °F 55.4 °F 53% 30.09 in 10.0 mi ESE 3.5 mph - N/A   Scattered Clouds
1:16 PM 73.4 °F 55.4 °F 53% 30.09 in 10.0 mi SE 3.5 mph - N/A   Scattered Clouds
1:35 PM 73.4 °F 55.4 °F 53% 30.09 in 10.0 mi East 8.1 mph - N/A   Scattered Clouds
1:57 PM 73.4 °F 53.6 °F 50% 30.09 in 10.0 mi Calm Calm - N/A   Scattered Clouds
2:15 PM 75.2 °F 55.4 °F 50% 30.09 in 10.0 mi Calm Calm - N/A   Scattered Clouds
2:35 PM 75.2 °F 53.6 °F 47% 30.08 in 10.0 mi East 3.5 mph - N/A   Scattered Clouds
2:36 PM 75.2 °F 53.6 °F 47% 30.08 in 10.0 mi East 5.8 mph - N/A   Scattered Clouds
2:55 PM 75.2 °F 53.6 °F 47% 30.08 in 10.0 mi East 4.6 mph - N/A   Clear
2:59 PM 75.2 °F 55.4 °F 50% 30.08 in 10.0 mi ESE 3.5 mph - N/A   Clear
3:16 PM 75.2 °F 55.4 °F 50% 30.08 in 10.0 mi East 4.6 mph - N/A   Scattered Clouds
3:36 PM 75.2 °F 53.6 °F 47% 30.07 in 10.0 mi East 8.1 mph - N/A   Clear
3:55 PM 75.2 °F 55.4 °F 50% 30.07 in 10.0 mi East 6.9 mph - N/A   Clear
3:56 PM 75.2 °F 55.4 °F 50% 30.07 in 10.0 mi East 8.1 mph - N/A   Clear
4:15 PM 75.2 °F 55.4 °F 50% 30.06 in 10.0 mi East 6.9 mph - N/A   Scattered Clouds
4:37 PM 75.2 °F 55.4 °F 50% 30.06 in 10.0 mi ESE 8.1 mph - N/A   Scattered Clouds
4:56 PM 75.2 °F 53.6 °F 47% 30.06 in 10.0 mi East 5.8 mph - N/A   Clear
5:15 PM 75.2 °F 55.4 °F 50% 30.06 in 10.0 mi East 6.9 mph - N/A   Clear
5:16 PM 75.2 °F 55.4 °F 50% 30.06 in 10.0 mi East 6.9 mph - N/A   Clear
5:35 PM 75.2 °F 55.4 °F 50% 30.05 in 10.0 mi ESE 6.9 mph - N/A   Clear
5:36 PM 75.2 °F 55.4 °F 50% 30.05 in 10.0 mi SE 6.9 mph - N/A   Clear
5:59 PM 73.4 °F 55.4 °F 53% 30.05 in 10.0 mi East 9.2 mph - N/A   Clear
6:16 PM 73.4 °F 55.4 °F 53% 30.05 in 10.0 mi ESE 8.1 mph - N/A   Clear
6:36 PM 73.4 °F 55.4 °F 53% 30.05 in 10.0 mi East 8.1 mph - N/A   Clear
6:55 PM 73.4 °F 55.4 °F 53% 30.05 in 10.0 mi East 9.2 mph - N/A   Clear
6:56 PM 73.4 °F 55.4 °F 53% 30.06 in 10.0 mi East 8.1 mph - N/A   Clear
7:15 PM 71.6 °F 57.2 °F 60% 30.06 in 10.0 mi ESE 8.1 mph - N/A   Clear
7:19 PM 71.6 °F 57.2 °F 60% 30.06 in 10.0 mi ESE 6.9 mph - N/A   Clear
7:38 PM 69.8 °F 57.2 °F 64% 30.06 in 10.0 mi ESE 5.8 mph - N/A   Clear
7:55 PM 68.0 °F 57.2 °F 68% 30.06 in 10.0 mi East 6.9 mph - N/A   Clear
8:15 PM 64.4 °F 57.2 °F 77% 30.07 in 10.0 mi East 4.6 mph - N/A   Clear
8:16 PM 64.4 °F 57.2 °F 77% 30.07 in 10.0 mi East 4.6 mph - N/A   Clear
8:35 PM 62.6 °F 57.2 °F 82% 30.08 in 10.0 mi ESE 5.8 mph - N/A   Clear
8:58 PM 62.6 °F 55.4 °F 77% 30.09 in 10.0 mi ESE 5.8 mph - N/A   Clear
9:16 PM 60.8 °F 55.4 °F 82% 30.10 in 10.0 mi ESE 5.8 mph - N/A   Clear
9:35 PM 60.8 °F 55.4 °F 82% 30.10 in 10.0 mi ESE 5.8 mph - N/A   Clear
9:55 PM 60.8 °F 55.4 °F 82% 30.10 in 10.0 mi ESE 5.8 mph - N/A   Clear
9:56 PM 60.8 °F 55.4 °F 82% 30.10 in 10.0 mi East 5.8 mph - N/A   Clear
10:15 PM 59.0 °F 55.4 °F 88% 30.10 in 10.0 mi ESE 5.8 mph - N/A   Clear
10:19 PM 59.0 °F 55.4 °F 88% 30.11 in 10.0 mi ESE 3.5 mph - N/A   Clear
10:38 PM 59.0 °F 53.6 °F 82% 30.12 in 10.0 mi ESE 5.8 mph - N/A   Clear
10:55 PM 57.2 °F 53.6 °F 88% 30.12 in 10.0 mi ESE 4.6 mph - N/A   Clear
11:15 PM 59.0 °F 53.6 °F 82% 30.12 in 10.0 mi ESE 5.8 mph - N/A   Clear
11:16 PM 59.0 °F 53.6 °F 82% 30.12 in 10.0 mi ESE 5.8 mph - N/A   Clear
11:35 PM 59.0 °F 53.6 °F 82% 30.12 in 10.0 mi SE 4.6 mph - N/A   Clear
11:58 PM 57.2 °F 53.6 °F 88% 30.12 in 10.0 mi ESE 4.6 mph - N/A   Clear